Time;durP1;ratioP1;P1;durP2;ratioP2;P2;SDS_P1;SDS_P2;PMS_P1;PMS_P2;Temp;Humidity;BMP_temperature;BMP_pressure;BME280_temperature;BME280_humidity;BME280_pressure;Samples;Min_cycle;Max_cycle;Signal;HPM_P1;HPM_P2
2022/12/13 00:00:58;;;;;;;33.83;20.70;;;5.40;1.00;;;;;;4989251;28;20330;-61
2022/12/13 00:03:25;;;;;;;34.67;21.60;;;5.30;1.00;;;;;;4994763;28;20046;-61
2022/12/13 00:05:50;;;;;;;40.43;23.07;;;5.30;1.00;;;;;;4995214;28;20353;-61
2022/12/13 00:08:16;;;;;;;36.97;21.90;;;5.10;1.00;;;;;;4994607;28;20113;-61
2022/12/13 00:10:59;;;;;;;35.63;23.87;;;5.10;1.00;;;;;;4994574;28;20026;-61
2022/12/13 00:13:24;;;;;;;36.17;22.40;;;5.10;1.00;;;;;;4982203;28;20065;-61
2022/12/13 00:16:03;;;;;;;35.97;22.77;;;5.10;1.00;;;;;;4994683;28;20053;-61
2022/12/13 00:18:29;;;;;;;35.80;21.73;;;5.10;1.00;;;;;;4982349;28;20022;-61
2022/12/13 00:20:54;;;;;;;38.33;21.90;;;5.20;1.00;;;;;;4984550;28;20062;-61
2022/12/13 00:23:20;;;;;;;41.43;24.43;;;5.20;1.00;;;;;;4993876;28;20074;-61
2022/12/13 00:25:46;;;;;;;32.77;21.97;;;5.20;1.00;;;;;;4994790;28;20413;-61
2022/12/13 00:28:12;;;;;;;34.87;21.73;;;5.30;1.00;;;;;;4976773;28;20084;-61
2022/12/13 00:30:41;;;;;;;37.43;22.90;;;5.30;1.00;;;;;;5001163;28;20056;-61
2022/12/13 00:33:07;;;;;;;39.30;23.57;;;5.30;1.00;;;;;;4983409;28;20472;-62
2022/12/13 00:35:33;;;;;;;38.17;23.80;;;5.30;1.00;;;;;;4994803;28;20029;-61
2022/12/13 00:37:59;;;;;;;38.00;23.97;;;5.30;1.00;;;;;;4994382;28;20062;-61
2022/12/13 00:40:27;;;;;;;40.77;24.53;;;5.30;1.00;;;;;;4994344;28;20461;-61
2022/12/13 00:42:53;;;;;;;39.07;23.67;;;5.30;1.00;;;;;;4994213;28;20406;-61
2022/12/13 00:45:18;;;;;;;38.33;24.30;;;5.30;1.00;;;;;;4995560;28;20030;-61
2022/12/13 00:47:45;;;;;;;42.27;24.57;;;5.30;1.00;;;;;;4988602;28;20026;-61
2022/12/13 00:50:11;;;;;;;36.87;21.97;;;5.30;1.00;;;;;;4994113;28;20488;-61
2022/12/13 00:52:36;;;;;;;36.17;22.10;;;5.40;1.00;;;;;;4985086;28;20046;-61
2022/12/13 00:55:02;;;;;;;38.27;23.43;;;5.40;1.00;;;;;;4994113;28;20048;-62
2022/12/13 00:57:28;;;;;;;34.60;21.23;;;5.40;1.00;;;;;;5000502;28;20470;-62
2022/12/13 00:59:54;;;;;;;36.03;22.00;;;5.40;1.00;;;;;;5013457;28;20033;-61
2022/12/13 01:02:20;;;;;;;34.60;22.77;;;5.40;1.00;;;;;;5013586;28;20030;-61
2022/12/13 01:04:49;;;;;;;34.77;22.07;;;5.40;1.00;;;;;;5013947;28;20033;-61
2022/12/13 01:07:14;;;;;;;35.27;22.33;;;5.50;1.00;;;;;;5013480;28;20096;-62
2022/12/13 01:09:41;;;;;;;35.00;22.57;;;5.50;1.00;;;;;;5013810;28;20444;-61
2022/12/13 01:12:07;;;;;;;31.87;21.10;;;5.40;1.00;;;;;;4996185;28;20038;-61
2022/12/13 01:14:36;;;;;;;34.07;22.50;;;5.50;1.00;;;;;;5013549;28;20385;-61
2022/12/13 01:17:02;;;;;;;32.37;20.97;;;5.50;1.00;;;;;;5012656;28;20072;-61
2022/12/13 01:19:28;;;;;;;35.37;21.77;;;5.40;1.00;;;;;;5011989;28;20061;-61
2022/12/13 01:21:55;;;;;;;31.03;20.07;;;5.50;1.00;;;;;;5013109;28;20026;-61
2022/12/13 01:24:23;;;;;;;32.37;21.37;;;5.60;1.00;;;;;;5013191;28;20084;-61
2022/12/13 01:26:49;;;;;;;36.10;22.33;;;5.50;1.00;;;;;;5012869;28;20488;-61
2022/12/13 01:29:16;;;;;;;31.93;20.47;;;5.50;1.00;;;;;;4994219;28;20025;-61
2022/12/13 01:31:42;;;;;;;30.77;20.13;;;5.50;1.00;;;;;;5008861;28;20499;-61
2022/12/13 01:34:10;;;;;;;32.87;20.80;;;5.50;1.00;;;;;;4995245;28;20121;-61
2022/12/13 01:36:36;;;;;;;33.47;20.17;;;5.50;1.00;;;;;;5011612;28;20151;-62
2022/12/13 01:39:02;;;;;;;30.03;19.57;;;5.50;1.00;;;;;;5012836;28;20053;-61
2022/12/13 01:41:30;;;;;;;29.03;19.77;;;5.50;1.00;;;;;;5012782;28;20052;-61
2022/12/13 01:44:02;;;;;;;31.67;19.83;;;5.60;1.00;;;;;;5012567;28;20030;-61
2022/12/13 01:46:29;;;;;;;32.57;20.00;;;5.60;1.00;;;;;;5012579;28;20026;-61
2022/12/13 01:49:24;;;;;;;33.53;20.07;;;5.60;1.00;;;;;;4998665;28;20073;-61
2022/12/13 01:51:58;;;;;;;26.87;18.30;;;5.50;1.00;;;;;;4995820;28;20040;-61
2022/12/13 01:54:30;;;;;;;29.63;19.67;;;5.50;1.00;;;;;;4994839;28;20419;-62
2022/12/13 01:56:56;;;;;;;31.73;19.37;;;5.40;1.00;;;;;;5005306;28;20043;-61
2022/12/13 01:59:22;;;;;;;27.47;17.80;;;5.40;1.00;;;;;;5011861;28;20049;-61
2022/12/13 02:02:11;;;;;;;29.33;19.47;;;5.50;1.00;;;;;;5012511;28;20038;-61
2022/12/13 02:04:43;;;;;;;28.70;19.50;;;5.60;1.00;;;;;;4983351;28;20431;-61
2022/12/13 02:07:08;;;;;;;30.23;20.80;;;5.60;1.00;;;;;;5012258;28;20085;-61
2022/12/13 02:09:36;;;;;;;30.43;18.80;;;5.60;1.00;;;;;;5011640;28;20018;-61
2022/12/13 02:12:03;;;;;;;27.23;18.13;;;5.50;1.00;;;;;;5008910;28;20081;-61
2022/12/13 02:14:28;;;;;;;29.67;19.37;;;5.60;1.00;;;;;;5012212;28;20036;-60
2022/12/13 02:17:10;;;;;;;34.00;20.60;;;5.50;1.00;;;;;;5012158;28;20046;-61
2022/12/13 02:20:33;;;;;;;32.30;20.90;;;5.60;1.00;;;;;;5012262;28;20495;-61
2022/12/13 02:23:31;;;;;;;29.13;19.10;;;5.50;1.00;;;;;;4951559;29;20050;-61
2022/12/13 02:26:18;;;;;;;29.17;20.00;;;5.40;1.00;;;;;;4923974;29;20043;-61
2022/12/13 02:29:02;;;;;;;30.73;20.07;;;5.60;1.00;;;;;;5001559;28;20053;-62
2022/12/13 02:31:36;;;;;;;30.02;19.48;;;5.40;1.00;;;;;;4993928;28;20026;-61
2022/12/13 02:34:17;;;;;;;29.47;19.83;;;5.50;1.00;;;;;;5011586;28;20032;-61
2022/12/13 02:36:51;;;;;;;28.47;20.20;;;5.60;1.00;;;;;;5010920;28;20033;-61
2022/12/13 02:39:26;;;;;;;33.35;21.38;;;5.60;1.00;;;;;;5002834;28;20484;-61
2022/12/13 02:42:15;;;;;;;30.73;20.25;;;5.60;1.00;;;;;;4997684;28;20102;-61
2022/12/13 02:44:47;;;;;;;32.40;20.80;;;5.70;1.00;;;;;;4993500;28;20029;-61
2022/12/13 02:47:21;;;;;;;33.40;20.83;;;5.70;1.00;;;;;;4993012;28;20030;-61
2022/12/13 02:49:50;;;;;;;32.07;21.10;;;5.70;1.00;;;;;;4993435;28;20460;-61
2022/12/13 02:52:19;;;;;;;30.37;19.73;;;5.70;1.00;;;;;;5011045;28;20030;-61
2022/12/13 02:54:46;;;;;;;32.10;20.70;;;5.70;1.00;;;;;;5011242;28;20022;-61
2022/12/13 02:57:47;;;;;;;34.17;21.00;;;5.70;1.00;;;;;;5011186;28;20065;-61
2022/12/13 03:00:18;;;;;;;34.70;22.87;;;5.70;1.00;;;;;;4947115;29;20031;-61
2022/12/13 03:03:05;;;;;;;34.63;21.80;;;5.80;1.00;;;;;;4989703;28;20046;-61
2022/12/13 03:06:29;;;;;;;38.07;24.30;;;5.70;1.00;;;;;;4977662;28;20030;-61
2022/12/13 03:09:24;;;;;;;31.90;20.93;;;5.70;1.00;;;;;;4959599;28;20034;-61
2022/12/13 03:15:21;;;;;;;34.20;21.60;;;5.60;1.00;;;;;;5003106;28;20040;-61
2022/12/13 03:17:58;;;;;;;33.37;22.03;;;5.60;1.00;;;;;;5010932;28;20097;-61
2022/12/13 03:20:27;;;;;;;33.00;21.57;;;5.60;1.00;;;;;;5010978;28;20096;-61
2022/12/13 03:22:58;;;;;;;31.63;21.20;;;5.50;1.00;;;;;;5008227;28;20032;-61
2022/12/13 03:25:28;;;;;;;38.50;22.77;;;5.50;1.00;;;;;;5007366;28;20022;-61
2022/12/13 03:27:54;;;;;;;33.73;21.37;;;5.60;1.00;;;;;;5011026;28;20121;-61
2022/12/13 03:30:20;;;;;;;32.63;20.93;;;5.60;1.00;;;;;;5009727;28;20088;-61
2022/12/13 03:32:46;;;;;;;31.87;20.83;;;5.50;1.00;;;;;;4998183;28;20014;-61
2022/12/13 03:35:18;;;;;;;33.17;21.73;;;5.50;1.00;;;;;;5006944;28;20025;-61
2022/12/13 03:37:44;;;;;;;30.97;20.87;;;5.50;1.00;;;;;;4985449;28;20049;-61
2022/12/13 03:40:22;;;;;;;33.73;21.17;;;5.60;1.00;;;;;;5011424;28;20022;-61
2022/12/13 03:42:48;;;;;;;28.77;19.07;;;5.60;1.00;;;;;;5011526;28;20368;-61
2022/12/13 03:45:14;;;;;;;29.47;20.17;;;5.50;1.00;;;;;;4995062;28;20033;-61
2022/12/13 03:47:39;;;;;;;32.53;20.57;;;5.40;1.00;;;;;;5014931;28;20026;-61
2022/12/13 03:50:05;;;;;;;30.37;20.33;;;5.50;1.00;;;;;;5014938;28;20028;-61
2022/12/13 03:52:31;;;;;;;31.57;21.27;;;5.50;1.00;;;;;;5002366;28;20031;-61
2022/12/13 03:54:57;;;;;;;30.97;20.50;;;5.60;1.00;;;;;;5014828;28;20542;-61
2022/12/13 03:57:22;;;;;;;36.20;23.33;;;5.50;1.00;;;;;;5014571;28;20057;-61
2022/12/13 03:59:48;;;;;;;29.63;20.27;;;5.50;1.00;;;;;;4990249;28;20345;-61
2022/12/13 04:02:13;;;;;;;31.07;20.97;;;5.60;1.00;;;;;;5000832;28;20491;-61
2022/12/13 04:04:39;;;;;;;33.30;22.50;;;5.50;1.00;;;;;;5014767;28;20033;-61
2022/12/13 04:07:05;;;;;;;29.17;20.33;;;5.60;1.00;;;;;;4996857;28;20034;-61
2022/12/13 04:09:30;;;;;;;30.70;21.00;;;5.60;1.00;;;;;;5014607;28;20036;-61
2022/12/13 04:14:40;;;;;;;32.40;21.93;;;5.50;1.00;;;;;;5010499;28;20033;-61
2022/12/13 04:17:06;;;;;;;37.33;22.50;;;5.50;1.00;;;;;;5014200;28;20388;-61
2022/12/13 04:19:31;;;;;;;34.17;22.00;;;5.50;1.00;;;;;;5014323;28;20025;-61
2022/12/13 04:21:57;;;;;;;30.00;20.13;;;5.40;1.00;;;;;;5014333;28;20507;-61
2022/12/13 04:24:24;;;;;;;30.90;21.53;;;5.50;1.00;;;;;;5014411;28;20025;-61
2022/12/13 04:26:50;;;;;;;29.80;21.20;;;5.50;1.00;;;;;;5014254;28;20014;-61
2022/12/13 04:29:15;;;;;;;35.07;21.70;;;5.20;1.00;;;;;;5005069;28;20146;-61
2022/12/13 04:31:41;;;;;;;32.00;20.57;;;5.40;1.00;;;;;;5014387;28;20025;-61
2022/12/13 04:34:08;;;;;;;30.13;20.87;;;5.40;1.00;;;;;;5014332;28;20053;-61
2022/12/13 04:36:34;;;;;;;29.07;20.93;;;5.20;1.00;;;;;;4999334;28;20034;-61
2022/12/13 04:39:03;;;;;;;33.10;22.77;;;5.00;1.00;;;;;;5007843;28;20034;-61
2022/12/13 04:41:29;;;;;;;37.27;22.97;;;5.10;1.00;;;;;;5006832;28;20014;-61
2022/12/13 04:43:55;;;;;;;34.00;23.23;;;5.10;1.00;;;;;;5012571;28;20460;-61
2022/12/13 04:46:20;;;;;;;31.87;21.90;;;5.30;1.00;;;;;;5002323;28;20139;-61
2022/12/13 04:48:47;;;;;;;36.70;23.07;;;5.40;1.00;;;;;;5014292;28;20033;-61
2022/12/13 04:51:15;;;;;;;35.03;24.00;;;5.40;1.00;;;;;;5008464;28;20049;-61
2022/12/13 04:53:40;;;;;;;34.63;22.77;;;5.40;1.00;;;;;;5006172;28;20521;-61
2022/12/13 04:56:06;;;;;;;32.37;22.57;;;5.30;1.00;;;;;;5012625;28;20075;-61
2022/12/13 04:58:32;;;;;;;35.00;23.13;;;5.30;1.00;;;;;;5013747;28;20096;-61
2022/12/13 05:00:57;;;;;;;31.53;22.37;;;5.40;1.00;;;;;;5005615;28;20026;-61
2022/12/13 05:03:32;;;;;;;32.73;22.07;;;5.30;1.00;;;;;;4990310;28;20097;-61
2022/12/13 05:05:58;;;;;;;31.90;22.40;;;5.40;1.00;;;;;;4995114;28;20583;-61
2022/12/13 05:08:24;;;;;;;34.73;22.40;;;5.50;1.00;;;;;;5013519;28;20076;-61
2022/12/13 05:10:49;;;;;;;32.53;21.93;;;5.60;1.00;;;;;;5013804;28;20025;-61
2022/12/13 05:13:15;;;;;;;33.37;22.80;;;5.60;1.00;;;;;;5013535;28;20134;-61
2022/12/13 05:19:02;;;;;;;34.03;22.87;;;5.40;1.00;;;;;;4991702;28;20052;-61
2022/12/13 05:21:28;;;;;;;35.43;22.17;;;5.30;1.00;;;;;;5013276;28;20486;-61
2022/12/13 05:23:54;;;;;;;33.10;23.70;;;5.30;1.00;;;;;;5013453;28;20042;-61
2022/12/13 05:26:19;;;;;;;34.17;23.50;;;5.40;1.00;;;;;;4995549;28;20079;-61
2022/12/13 05:28:45;;;;;;;34.20;21.90;;;5.50;1.00;;;;;;5013126;28;20041;-61
2022/12/13 05:31:11;;;;;;;32.87;22.83;;;5.50;1.00;;;;;;5009805;28;20403;-61
2022/12/13 05:33:42;;;;;;;36.50;23.17;;;5.50;1.00;;;;;;5004370;28;20026;-61
2022/12/13 05:36:09;;;;;;;35.10;23.80;;;5.50;1.00;;;;;;5012901;28;20072;-61
2022/12/13 05:38:34;;;;;;;33.80;23.17;;;5.40;1.00;;;;;;5013258;28;20062;-61
2022/12/13 05:41:00;;;;;;;32.07;21.60;;;5.40;1.00;;;;;;4991252;28;20117;-61
2022/12/13 05:43:26;;;;;;;33.13;23.83;;;5.50;1.00;;;;;;5001994;28;20383;-61
2022/12/13 05:45:51;;;;;;;33.00;22.80;;;5.60;1.00;;;;;;5013313;28;20029;-61
2022/12/13 05:48:17;;;;;;;33.50;23.20;;;5.60;1.00;;;;;;5012964;28;20360;-61
2022/12/13 05:50:43;;;;;;;35.40;23.67;;;5.60;1.00;;;;;;5012671;28;20566;-61
2022/12/13 05:53:09;;;;;;;35.30;23.83;;;5.50;1.00;;;;;;5012503;28;20026;-60
2022/12/13 05:55:37;;;;;;;33.10;22.33;;;5.60;1.00;;;;;;4994869;28;20460;-61
2022/12/13 05:58:03;;;;;;;34.60;22.73;;;5.60;1.00;;;;;;5010769;28;20136;-61
2022/12/13 06:00:29;;;;;;;34.43;24.43;;;5.60;1.00;;;;;;4983413;28;20018;-61
2022/12/13 06:02:55;;;;;;;30.30;21.47;;;5.70;1.00;;;;;;5003002;28;20479;-61
2022/12/13 06:05:48;;;;;;;33.03;22.43;;;5.60;1.00;;;;;;5012267;28;20026;-61
2022/12/13 06:08:14;;;;;;;36.13;23.67;;;5.70;1.00;;;;;;5012479;28;20038;-61
2022/12/13 06:10:40;;;;;;;32.57;21.90;;;5.60;1.00;;;;;;5009543;28;20020;-61
2022/12/13 06:13:06;;;;;;;33.17;23.30;;;5.50;1.00;;;;;;5001863;28;20034;-60
2022/12/13 06:15:32;;;;;;;35.20;23.77;;;5.50;1.00;;;;;;5012154;28;20089;-60
2022/12/13 06:18:00;;;;;;;37.83;23.97;;;5.60;1.00;;;;;;4994415;28;20034;-61
2022/12/13 06:20:26;;;;;;;34.50;23.90;;;5.70;1.00;;;;;;5012291;28;20032;-61
2022/12/13 06:22:52;;;;;;;34.10;23.00;;;5.70;1.00;;;;;;5011938;28;20026;-62
2022/12/13 06:25:18;;;;;;;35.03;24.60;;;5.60;1.00;;;;;;4978858;28;20038;-62
2022/12/13 06:27:44;;;;;;;36.53;23.03;;;5.70;1.00;;;;;;5009411;28;20026;-62
2022/12/13 06:30:10;;;;;;;34.93;24.03;;;5.60;1.00;;;;;;5011946;28;20167;-62
2022/12/13 06:32:35;;;;;;;32.33;22.20;;;5.50;1.00;;;;;;5011864;28;20045;-62
2022/12/13 06:35:01;;;;;;;37.67;24.83;;;5.70;1.00;;;;;;5008618;28;20038;-62
2022/12/13 06:37:27;;;;;;;37.43;23.37;;;5.70;1.00;;;;;;5011830;28;20420;-62
2022/12/13 06:39:52;;;;;;;36.80;22.50;;;5.70;1.00;;;;;;4994342;28;20018;-62
2022/12/13 06:42:18;;;;;;;36.73;22.70;;;5.70;1.00;;;;;;5011950;28;20136;-62
2022/12/13 06:44:44;;;;;;;34.57;23.60;;;5.60;1.00;;;;;;5005890;28;20114;-62
2022/12/13 06:47:10;;;;;;;32.60;21.17;;;5.50;1.00;;;;;;5002718;28;20136;-62
2022/12/13 06:49:36;;;;;;;34.00;23.30;;;5.60;1.00;;;;;;5011875;28;20034;-62
2022/12/13 06:52:02;;;;;;;34.53;22.73;;;5.60;1.00;;;;;;5003140;28;20425;-62
2022/12/13 06:54:28;;;;;;;34.33;22.17;;;5.60;1.00;;;;;;5006240;28;20022;-62
2022/12/13 06:56:53;;;;;;;39.03;25.07;;;5.70;1.00;;;;;;4998253;28;20053;-61
2022/12/13 06:59:19;;;;;;;37.47;23.73;;;5.70;1.00;;;;;;5011809;28;20065;-62
2022/12/13 07:01:58;;;;;;;35.80;23.23;;;5.60;1.00;;;;;;4997805;28;20022;-62
2022/12/13 07:04:23;;;;;;;39.13;25.27;;;5.70;1.00;;;;;;5011862;28;20030;-62
2022/12/13 07:06:49;;;;;;;31.47;22.47;;;5.70;1.00;;;;;;4994052;28;20038;-63
2022/12/13 07:09:15;;;;;;;35.10;24.40;;;5.80;1.00;;;;;;4972299;28;20773;-62
2022/12/13 07:11:40;;;;;;;35.60;23.80;;;5.80;1.00;;;;;;4986604;28;20055;-62
2022/12/13 07:14:06;;;;;;;33.70;22.53;;;5.80;1.00;;;;;;5009966;28;20050;-62
2022/12/13 07:16:32;;;;;;;30.63;21.77;;;5.60;1.00;;;;;;5000949;28;20109;-62
2022/12/13 07:18:59;;;;;;;39.07;23.87;;;5.60;1.00;;;;;;4976442;28;20539;-62
2022/12/13 07:21:25;;;;;;;37.77;23.20;;;5.70;1.00;;;;;;4995480;28;20070;-62
2022/12/13 07:23:51;;;;;;;35.50;22.57;;;5.80;1.00;;;;;;4995561;28;20058;-62
2022/12/13 07:26:18;;;;;;;36.07;23.20;;;5.70;1.00;;;;;;5005308;28;20111;-62
2022/12/13 07:28:44;;;;;;;32.60;23.50;;;5.70;1.00;;;;;;5001152;28;20416;-62
2022/12/13 07:31:10;;;;;;;36.00;22.70;;;5.70;1.00;;;;;;4990057;28;20037;-63
2022/12/13 07:33:36;;;;;;;36.73;23.80;;;5.80;1.00;;;;;;4995130;28;20033;-62
2022/12/13 07:36:05;;;;;;;37.20;23.50;;;5.70;1.00;;;;;;4997730;28;20026;-62
2022/12/13 07:38:35;;;;;;;38.07;24.50;;;5.70;1.00;;;;;;4998525;28;20117;-62
2022/12/13 07:41:01;;;;;;;40.60;24.23;;;5.80;1.00;;;;;;5012268;28;20039;-62
2022/12/13 07:43:28;;;;;;;40.13;25.13;;;5.70;1.00;;;;;;5003234;28;20484;-62
2022/12/13 07:45:53;;;;;;;37.73;25.70;;;5.60;1.00;;;;;;4997429;28;20026;-62
2022/12/13 07:48:22;;;;;;;37.13;24.30;;;5.70;1.00;;;;;;5006779;28;20025;-62
2022/12/13 07:50:48;;;;;;;37.97;24.97;;;5.70;1.00;;;;;;4995190;28;20041;-61
2022/12/13 07:53:13;;;;;;;40.20;26.17;;;5.60;1.00;;;;;;4997747;28;20030;-62
2022/12/13 07:55:39;;;;;;;40.60;25.77;;;5.40;1.00;;;;;;5007703;28;20034;-61
2022/12/13 07:58:06;;;;;;;39.83;26.53;;;5.30;1.00;;;;;;5014225;28;20088;-61
2022/12/13 08:00:32;;;;;;;41.37;27.57;;;5.50;1.00;;;;;;5014743;28;20423;-61
2022/12/13 08:03:00;;;;;;;39.10;26.90;;;5.60;1.00;;;;;;5014586;28;20030;-61
2022/12/13 08:05:27;;;;;;;42.87;27.37;;;5.50;1.00;;;;;;5005732;28;20085;-61
2022/12/13 08:07:52;;;;;;;39.60;25.73;;;5.50;1.00;;;;;;5013150;28;20109;-62
2022/12/13 08:10:18;;;;;;;40.70;25.43;;;5.50;1.00;;;;;;5002187;28;20495;-62
2022/12/13 08:12:44;;;;;;;41.10;25.27;;;5.50;1.00;;;;;;5014449;28;20037;-62
2022/12/13 08:15:10;;;;;;;42.37;27.27;;;5.50;1.00;;;;;;5000597;28;20368;-62
2022/12/13 08:17:39;;;;;;;44.07;27.70;;;5.20;1.00;;;;;;5014450;28;20034;-62
2022/12/13 08:20:34;;;;;;;41.53;27.43;;;5.30;1.00;;;;;;5009647;28;20118;-62
2022/12/13 08:23:06;;;;;;;43.67;26.70;;;5.30;1.00;;;;;;4991184;28;20052;-62
2022/12/13 08:25:32;;;;;;;40.47;26.57;;;5.30;1.00;;;;;;4969763;28;20034;-62
2022/12/13 08:27:57;;;;;;;44.50;27.20;;;5.40;1.00;;;;;;4994855;28;20027;-62
2022/12/13 08:30:23;;;;;;;44.27;28.40;;;5.20;1.00;;;;;;5011963;28;20476;-62
2022/12/13 08:32:49;;;;;;;46.20;27.90;;;5.10;1.00;;;;;;5005116;28;20026;-69
2022/12/13 08:35:15;;;;;;;44.17;27.40;;;5.00;1.00;;;;;;5005661;28;20026;-67
2022/12/13 08:37:41;;;;;;;52.40;31.23;;;4.90;1.00;;;;;;5010749;28;20041;-66
2022/12/13 08:40:08;;;;;;;54.83;32.27;;;5.00;1.00;;;;;;5002553;28;20026;-66
2022/12/13 08:42:34;;;;;;;51.00;30.37;;;5.20;1.00;;;;;;5014758;28;20030;-65
2022/12/13 08:44:59;;;;;;;48.83;29.43;;;5.10;1.00;;;;;;5012648;28;20029;-65
2022/12/13 08:47:26;;;;;;;52.77;31.40;;;5.30;1.00;;;;;;5012283;28;20072;-66
2022/12/13 08:49:58;;;;;;;47.27;31.73;;;5.30;1.00;;;;;;5013987;28;20125;-65
2022/12/13 08:52:23;;;;;;;54.87;32.90;;;5.30;1.00;;;;;;5013783;28;20029;-65
2022/12/13 08:54:49;;;;;;;53.00;33.60;;;5.30;1.00;;;;;;5013657;28;20026;-65
2022/12/13 08:57:15;;;;;;;51.60;31.03;;;5.40;1.00;;;;;;4992716;28;20113;-65
2022/12/13 08:59:41;;;;;;;47.87;30.60;;;5.50;1.00;;;;;;4996321;28;20428;-66
2022/12/13 09:02:12;;;;;;;52.80;31.00;;;5.40;1.00;;;;;;5013708;28;20530;-66
2022/12/13 09:04:38;;;;;;;54.23;33.73;;;5.40;1.00;;;;;;5013614;28;20379;-66
2022/12/13 09:07:09;;;;;;;49.10;32.10;;;5.30;1.00;;;;;;5013759;28;20112;-65
2022/12/13 09:09:35;;;;;;;50.40;31.90;;;5.30;1.00;;;;;;5013645;28;20029;-65
2022/12/13 09:12:01;;;;;;;50.17;32.50;;;5.20;1.00;;;;;;5013559;28;20034;-65
2022/12/13 09:14:27;;;;;;;57.90;34.70;;;5.30;1.00;;;;;;5013346;28;20464;-66
2022/12/13 09:16:52;;;;;;;53.53;33.67;;;5.40;1.00;;;;;;4995859;28;20515;-66
2022/12/13 09:19:33;;;;;;;54.80;34.27;;;5.40;1.00;;;;;;5013131;28;20109;-66
2022/12/13 09:21:59;;;;;;;55.80;33.60;;;5.50;1.00;;;;;;5013103;28;20068;-66
2022/12/13 09:24:25;;;;;;;50.17;31.93;;;5.50;1.00;;;;;;5013143;28;20049;-66
2022/12/13 09:26:50;;;;;;;49.73;32.97;;;5.50;1.00;;;;;;5012492;28;20026;-65
2022/12/13 09:29:16;;;;;;;54.47;32.70;;;5.60;1.00;;;;;;5013427;28;20029;-66
2022/12/13 09:31:42;;;;;;;54.63;32.27;;;5.60;1.00;;;;;;5013257;28;20026;-66
2022/12/13 09:34:11;;;;;;;48.80;33.53;;;5.60;1.00;;;;;;5013096;28;20137;-65
2022/12/13 09:36:37;;;;;;;53.50;33.13;;;5.50;1.00;;;;;;4995267;28;20109;-65
2022/12/13 09:39:03;;;;;;;49.63;31.97;;;5.50;1.00;;;;;;5011833;28;20106;-65
2022/12/13 09:41:45;;;;;;;48.70;31.83;;;5.60;1.00;;;;;;5012360;28;20018;-66
2022/12/13 09:44:16;;;;;;;50.70;33.83;;;5.50;1.00;;;;;;5013111;28;20026;-65
2022/12/13 09:46:45;;;;;;;50.00;31.63;;;5.60;1.00;;;;;;5007800;28;20037;-65
2022/12/13 09:49:31;;;;;;;46.10;30.30;;;5.70;1.00;;;;;;5012856;28;20034;-65
2022/12/13 09:52:00;;;;;;;48.97;31.23;;;5.50;1.00;;;;;;5012727;28;20405;-65
2022/12/13 09:54:26;;;;;;;51.47;31.83;;;5.60;1.00;;;;;;5012272;28;20440;-65
2022/12/13 09:56:54;;;;;;;51.83;34.57;;;5.70;1.00;;;;;;5012506;28;20076;-65
2022/12/13 09:59:29;;;;;;;50.10;33.23;;;5.80;1.00;;;;;;4994956;28;20164;-65
2022/12/13 10:01:56;;;;;;;48.47;31.23;;;5.90;1.00;;;;;;5012603;28;20061;-65
2022/12/13 10:04:22;;;;;;;48.80;31.07;;;5.90;1.00;;;;;;5012565;28;20025;-65
2022/12/13 10:06:52;;;;;;;50.07;34.03;;;5.80;1.00;;;;;;5012629;28;20030;-65
2022/12/13 10:09:18;;;;;;;46.93;30.67;;;5.80;1.00;;;;;;5012492;28;20034;-65
2022/12/13 10:11:49;;;;;;;45.47;30.80;;;5.90;1.00;;;;;;5012564;28;20106;-65
2022/12/13 10:14:21;;;;;;;49.07;32.43;;;5.90;1.00;;;;;;5005115;28;20511;-65
2022/12/13 10:16:56;;;;;;;54.97;33.23;;;5.90;1.00;;;;;;5000263;28;20394;-65
2022/12/13 10:19:39;;;;;;;45.23;31.17;;;5.90;1.00;;;;;;4994168;28;20060;-65
2022/12/13 10:22:14;;;;;;;44.13;31.40;;;5.80;1.00;;;;;;5012234;28;20116;-65
2022/12/13 10:24:50;;;;;;;49.05;33.47;;;5.90;1.00;;;;;;5012324;28;20032;-65
2022/12/13 10:27:19;;;;;;;49.80;32.37;;;5.90;1.00;;;;;;4994632;28;20444;-66
2022/12/13 10:30:04;;;;;;;52.10;33.57;;;6.00;1.00;;;;;;5011546;28;20040;-63
2022/12/13 10:32:33;;;;;;;47.80;32.30;;;5.80;1.00;;;;;;4994336;28;20029;-63
2022/12/13 10:35:17;;;;;;;50.33;33.47;;;5.90;1.00;;;;;;5011862;28;20484;-63
2022/12/13 10:37:46;;;;;;;50.10;32.87;;;5.70;1.00;;;;;;4989890;28;20096;-63
2022/12/13 10:40:34;;;;;;;52.93;35.07;;;5.80;1.00;;;;;;5011544;28;20026;-63
2022/12/13 10:43:21;;;;;;;49.77;34.20;;;5.90;1.00;;;;;;5001293;28;20034;-63
2022/12/13 10:46:18;;;;;;;53.70;36.53;;;5.90;1.00;;;;;;5021610;28;20492;-64
2022/12/13 10:48:50;;;;;;;52.93;34.57;;;5.80;1.00;;;;;;5010164;28;20079;-63
2022/12/13 10:51:19;;;;;;;49.83;33.70;;;5.80;1.00;;;;;;4993634;28;20488;-63
2022/12/13 10:53:52;;;;;;;50.77;35.53;;;5.60;1.00;;;;;;5014001;28;20022;-63
2022/12/13 10:56:19;;;;;;;57.10;35.33;;;5.60;1.00;;;;;;5015982;28;20085;-62
2022/12/13 10:58:47;;;;;;;51.60;33.13;;;5.80;1.00;;;;;;5015752;28;20061;-62
2022/12/13 11:01:27;;;;;;;51.97;34.60;;;5.90;1.00;;;;;;5015476;28;20108;-62
2022/12/13 11:04:02;;;;;;;55.47;35.60;;;6.10;1.00;;;;;;5015824;28;20026;-63
2022/12/13 11:06:41;;;;;;;53.67;33.83;;;5.90;1.00;;;;;;5015745;28;20022;-63
2022/12/13 11:12:29;;;;;;;48.70;33.53;;;6.00;1.00;;;;;;5007742;28;20044;-62
2022/12/13 11:15:01;;;;;;;48.97;33.77;;;5.80;1.00;;;;;;5012938;28;20034;-62
2022/12/13 11:17:31;;;;;;;50.27;32.67;;;5.90;1.00;;;;;;4996956;28;20052;-62
2022/12/13 11:20:16;;;;;;;50.30;33.90;;;5.90;1.00;;;;;;5015651;28;20076;-62
2022/12/13 11:26:22;;;;;;;49.03;32.60;;;6.20;1.00;;;;;;5011853;28;20463;-63
2022/12/13 11:29:29;;;;;;;48.90;31.83;;;6.10;1.00;;;;;;5013390;28;20104;-62
2022/12/13 11:32:00;;;;;;;50.67;34.07;;;6.20;1.00;;;;;;5015330;28;20041;-62
2022/12/13 11:34:42;;;;;;;48.73;33.33;;;6.30;1.00;;;;;;5015469;28;20502;-62
2022/12/13 11:37:40;;;;;;;49.43;32.07;;;6.20;1.00;;;;;;5014957;28;20045;-62
2022/12/13 11:40:15;;;;;;;45.67;32.17;;;6.20;1.00;;;;;;5015323;28;20060;-62
2022/12/13 11:42:47;;;;;;;;;;;6.10;1.00;;;;;;5015087;28;20097;-62
2022/12/13 11:45:19;;;;;;;44.00;30.57;;;6.30;1.00;;;;;;5015295;28;19912;-62
2022/12/13 11:48:00;;;;;;;45.30;32.03;;;6.30;1.00;;;;;;5005536;28;20085;-62
2022/12/13 11:50:44;;;;;;;43.80;30.13;;;6.30;1.00;;;;;;5015011;28;20030;-62
2022/12/13 11:53:37;;;;;;;46.13;32.00;;;6.30;1.00;;;;;;5015020;28;20096;-62
2022/12/13 11:56:09;;;;;;;47.90;31.43;;;6.40;1.00;;;;;;5015158;28;20036;-62
2022/12/13 11:58:59;;;;;;;46.77;31.17;;;6.30;1.00;;;;;;5014470;28;20095;-62
2022/12/13 12:01:52;;;;;;;45.10;29.47;;;6.30;1.00;;;;;;5002352;28;20076;-62
2022/12/13 12:04:26;;;;;;;47.40;31.40;;;6.10;1.00;;;;;;5011176;28;20033;-62
2022/12/13 12:07:06;;;;;;;46.03;29.83;;;6.10;1.00;;;;;;5014854;28;20021;-62
2022/12/13 12:09:35;;;;;;;45.27;30.43;;;6.40;1.00;;;;;;5021930;28;20033;-62
2022/12/13 12:12:24;;;;;;;45.27;31.67;;;6.30;1.00;;;;;;5014396;28;20029;-62
2022/12/13 12:14:59;;;;;;;47.60;30.90;;;6.40;1.00;;;;;;5002283;28;20145;-61
2022/12/13 12:17:25;;;;;;;44.70;30.97;;;6.30;1.00;;;;;;5013016;28;20049;-62
2022/12/13 12:27:05;;;;;;;45.70;30.73;;;6.40;1.00;;;;;;5003208;28;20428;-61
2022/12/13 12:29:48;;;;;;;;;;;6.30;1.00;;;;;;4988925;28;20033;-62
2022/12/13 12:32:14;;;;;;;48.30;29.40;;;6.30;1.00;;;;;;5014064;28;19964;-62
2022/12/13 12:35:18;;;;;;;44.20;29.83;;;6.30;1.00;;;;;;5014344;28;20428;-62
2022/12/13 12:38:00;;;;;;;50.67;31.53;;;6.50;1.00;;;;;;4995022;28;20037;-61
2022/12/13 12:40:36;;;;;;;48.53;32.77;;;6.20;1.00;;;;;;5013534;28;20018;-61
2022/12/13 12:43:40;;;;;;;48.23;31.53;;;6.40;1.00;;;;;;5004801;28;20026;-62
2022/12/13 12:46:27;;;;;;;45.00;29.53;;;6.40;1.00;;;;;;5006948;28;20034;-62
2022/12/13 12:49:17;;;;;;;45.73;28.60;;;6.30;1.00;;;;;;5002086;28;20028;-62
2022/12/13 12:52:04;;;;;;;49.23;32.53;;;6.40;1.00;;;;;;5014351;28;20045;-62
2022/12/13 12:54:45;;;;;;;43.87;29.23;;;6.30;1.00;;;;;;5001026;28;20029;-61
2022/12/13 12:57:27;;;;;;;45.77;30.77;;;6.30;1.00;;;;;;4994793;28;20064;-61
2022/12/13 13:00:02;;;;;;;46.53;31.47;;;6.30;1.00;;;;;;4995969;28;20018;-61
2022/12/13 13:02:59;;;;;;;45.43;29.87;;;6.40;1.00;;;;;;4995905;28;20444;-61
2022/12/13 13:05:41;;;;;;;40.97;30.23;;;6.40;1.00;;;;;;5013270;28;20076;-61
2022/12/13 13:08:23;;;;;;;42.50;29.50;;;6.40;1.00;;;;;;5004324;28;20037;-61
2022/12/13 13:10:51;;;;;;;47.90;29.87;;;6.40;1.00;;;;;;4995721;28;20432;-61
2022/12/13 13:13:35;;;;;;;46.47;30.57;;;6.50;1.00;;;;;;5013451;28;20029;-61
2022/12/13 13:16:01;;;;;;;41.27;28.83;;;6.40;1.00;;;;;;4999779;28;20487;-61
2022/12/13 13:18:50;;;;;;;44.60;30.70;;;6.40;1.00;;;;;;5012782;28;20052;-61
2022/12/13 13:21:31;;;;;;;44.20;29.37;;;6.50;1.00;;;;;;5013565;28;20105;-61
2022/12/13 13:24:12;;;;;;;45.27;30.60;;;6.40;1.00;;;;;;5013054;28;20079;-61
2022/12/13 13:26:44;;;;;;;44.37;31.47;;;6.60;1.00;;;;;;5007356;28;20029;-61
2022/12/13 13:29:22;;;;;;;45.70;30.87;;;6.40;1.00;;;;;;5006538;28;20031;-61
2022/12/13 13:31:58;;;;;;;42.67;29.47;;;6.40;1.00;;;;;;5001337;28;20026;-61